sensor_id;sensor_type;location;lat;lon;timestamp;P1;durP1;ratioP1;P2;durP2;ratioP2
12896;SDS011;6516;35.028;32.372;2023-01-29T00:00:04;11.50;;;2.80;;
12896;SDS011;6516;35.028;32.372;2023-01-29T00:02:34;13.68;;;2.95;;
12896;SDS011;6516;35.028;32.372;2023-01-29T00:05:02;10.27;;;2.20;;
12896;SDS011;6516;35.028;32.372;2023-01-29T00:07:31;11.35;;;2.83;;
12896;SDS011;6516;35.028;32.372;2023-01-29T00:09:59;9.32;;;1.90;;
12896;SDS011;6516;35.028;32.372;2023-01-29T00:12:28;8.55;;;1.90;;
12896;SDS011;6516;35.028;32.372;2023-01-29T00:14:55;10.95;;;2.28;;
12896;SDS011;6516;35.028;32.372;2023-01-29T00:17:23;10.37;;;2.47;;
12896;SDS011;6516;35.028;32.372;2023-01-29T00:19:51;9.05;;;2.05;;
12896;SDS011;6516;35.028;32.372;2023-01-29T00:22:19;12.55;;;2.08;;
12896;SDS011;6516;35.028;32.372;2023-01-29T00:24:46;8.60;;;2.05;;
12896;SDS011;6516;35.028;32.372;2023-01-29T00:27:14;7.82;;;1.98;;
12896;SDS011;6516;35.028;32.372;2023-01-29T00:29:43;9.30;;;1.90;;
12896;SDS011;6516;35.028;32.372;2023-01-29T00:32:33;9.60;;;1.80;;
12896;SDS011;6516;35.028;32.372;2023-01-29T00:35:01;8.35;;;1.98;;
12896;SDS011;6516;35.028;32.372;2023-01-29T00:37:30;11.60;;;2.38;;
12896;SDS011;6516;35.028;32.372;2023-01-29T00:39:57;8.05;;;2.00;;
12896;SDS011;6516;35.028;32.372;2023-01-29T00:42:25;7.13;;;1.80;;
12896;SDS011;6516;35.028;32.372;2023-01-29T00:45:12;6.50;;;1.60;;
12896;SDS011;6516;35.028;32.372;2023-01-29T00:47:40;12.00;;;1.95;;
12896;SDS011;6516;35.028;32.372;2023-01-29T00:50:08;10.02;;;1.52;;
12896;SDS011;6516;35.028;32.372;2023-01-29T00:52:37;9.77;;;2.35;;
12896;SDS011;6516;35.028;32.372;2023-01-29T00:55:06;8.20;;;1.90;;
12896;SDS011;6516;35.028;32.372;2023-01-29T00:57:38;11.38;;;2.10;;
12896;SDS011;6516;35.028;32.372;2023-01-29T01:00:07;7.95;;;1.92;;
12896;SDS011;6516;35.028;32.372;2023-01-29T01:02:39;8.27;;;1.95;;
12896;SDS011;6516;35.028;32.372;2023-01-29T01:05:24;7.38;;;1.80;;
12896;SDS011;6516;35.028;32.372;2023-01-29T01:07:52;9.77;;;2.27;;
12896;SDS011;6516;35.028;32.372;2023-01-29T01:10:24;7.75;;;2.00;;
12896;SDS011;6516;35.028;32.372;2023-01-29T01:12:53;6.65;;;2.00;;
12896;SDS011;6516;35.028;32.372;2023-01-29T01:15:24;7.75;;;2.05;;
12896;SDS011;6516;35.028;32.372;2023-01-29T01:17:56;10.77;;;2.08;;
12896;SDS011;6516;35.028;32.372;2023-01-29T01:20:27;6.53;;;1.57;;
12896;SDS011;6516;35.028;32.372;2023-01-29T01:22:57;8.43;;;2.00;;
12896;SDS011;6516;35.028;32.372;2023-01-29T01:25:25;9.80;;;2.22;;
12896;SDS011;6516;35.028;32.372;2023-01-29T01:27:54;6.03;;;1.90;;
12896;SDS011;6516;35.028;32.372;2023-01-29T01:30:23;9.63;;;2.60;;
12896;SDS011;6516;35.028;32.372;2023-01-29T01:32:52;10.80;;;2.13;;
12896;SDS011;6516;35.028;32.372;2023-01-29T01:35:22;6.75;;;1.60;;
12896;SDS011;6516;35.028;32.372;2023-01-29T01:37:49;6.30;;;1.60;;
12896;SDS011;6516;35.028;32.372;2023-01-29T01:40:19;8.15;;;2.50;;
12896;SDS011;6516;35.028;32.372;2023-01-29T01:42:48;5.65;;;1.80;;
12896;SDS011;6516;35.028;32.372;2023-01-29T01:45:19;11.00;;;1.93;;
12896;SDS011;6516;35.028;32.372;2023-01-29T01:47:51;9.23;;;2.13;;
12896;SDS011;6516;35.028;32.372;2023-01-29T01:50:25;9.45;;;2.08;;
12896;SDS011;6516;35.028;32.372;2023-01-29T01:53:00;8.68;;;2.10;;
12896;SDS011;6516;35.028;32.372;2023-01-29T01:55:33;10.55;;;1.83;;
12896;SDS011;6516;35.028;32.372;2023-01-29T01:58:05;8.67;;;1.80;;
12896;SDS011;6516;35.028;32.372;2023-01-29T02:00:39;11.30;;;2.28;;
12896;SDS011;6516;35.028;32.372;2023-01-29T02:03:08;7.90;;;1.95;;
12896;SDS011;6516;35.028;32.372;2023-01-29T02:05:55;8.85;;;2.10;;
12896;SDS011;6516;35.028;32.372;2023-01-29T02:08:44;8.70;;;2.13;;
12896;SDS011;6516;35.028;32.372;2023-01-29T02:11:36;7.80;;;1.77;;
12896;SDS011;6516;35.028;32.372;2023-01-29T02:14:04;8.85;;;2.17;;
12896;SDS011;6516;35.028;32.372;2023-01-29T02:16:32;6.40;;;1.70;;
12896;SDS011;6516;35.028;32.372;2023-01-29T02:19:02;10.15;;;1.83;;
12896;SDS011;6516;35.028;32.372;2023-01-29T02:21:44;10.18;;;2.38;;
12896;SDS011;6516;35.028;32.372;2023-01-29T02:24:55;7.43;;;1.90;;
12896;SDS011;6516;35.028;32.372;2023-01-29T02:27:37;9.75;;;2.17;;
12896;SDS011;6516;35.028;32.372;2023-01-29T02:30:41;6.22;;;2.03;;
12896;SDS011;6516;35.028;32.372;2023-01-29T02:33:18;7.57;;;1.73;;
12896;SDS011;6516;35.028;32.372;2023-01-29T02:35:58;7.75;;;2.08;;
12896;SDS011;6516;35.028;32.372;2023-01-29T02:38:37;9.20;;;1.90;;
12896;SDS011;6516;35.028;32.372;2023-01-29T02:41:19;7.20;;;2.10;;
12896;SDS011;6516;35.028;32.372;2023-01-29T02:43:54;13.25;;;2.53;;
12896;SDS011;6516;35.028;32.372;2023-01-29T02:46:34;7.07;;;2.20;;
12896;SDS011;6516;35.028;32.372;2023-01-29T02:49:07;7.55;;;1.88;;
12896;SDS011;6516;35.028;32.372;2023-01-29T02:51:42;11.13;;;2.17;;
12896;SDS011;6516;35.028;32.372;2023-01-29T02:54:16;9.48;;;2.53;;
12896;SDS011;6516;35.028;32.372;2023-01-29T02:56:50;8.90;;;2.15;;
12896;SDS011;6516;35.028;32.372;2023-01-29T02:59:22;6.78;;;2.08;;
12896;SDS011;6516;35.028;32.372;2023-01-29T03:02:00;6.78;;;2.30;;
12896;SDS011;6516;35.028;32.372;2023-01-29T03:04:32;6.73;;;1.93;;
12896;SDS011;6516;35.028;32.372;2023-01-29T03:07:07;10.70;;;2.40;;
12896;SDS011;6516;35.028;32.372;2023-01-29T03:10:00;8.23;;;3.35;;
12896;SDS011;6516;35.028;32.372;2023-01-29T03:12:33;6.63;;;2.00;;
12896;SDS011;6516;35.028;32.372;2023-01-29T03:15:06;7.82;;;1.90;;
12896;SDS011;6516;35.028;32.372;2023-01-29T03:17:43;9.53;;;2.27;;
12896;SDS011;6516;35.028;32.372;2023-01-29T03:20:15;8.95;;;2.35;;
12896;SDS011;6516;35.028;32.372;2023-01-29T03:22:47;11.85;;;3.20;;
12896;SDS011;6516;35.028;32.372;2023-01-29T03:25:22;8.05;;;2.40;;
12896;SDS011;6516;35.028;32.372;2023-01-29T03:28:11;6.93;;;2.10;;
12896;SDS011;6516;35.028;32.372;2023-01-29T03:31:01;7.73;;;2.43;;
12896;SDS011;6516;35.028;32.372;2023-01-29T03:33:50;5.28;;;2.10;;
12896;SDS011;6516;35.028;32.372;2023-01-29T03:36:26;8.70;;;2.28;;
12896;SDS011;6516;35.028;32.372;2023-01-29T03:39:02;7.18;;;2.30;;
12896;SDS011;6516;35.028;32.372;2023-01-29T03:41:31;9.93;;;2.70;;
12896;SDS011;6516;35.028;32.372;2023-01-29T03:44:05;10.90;;;2.60;;
12896;SDS011;6516;35.028;32.372;2023-01-29T03:46:42;7.57;;;2.50;;
12896;SDS011;6516;35.028;32.372;2023-01-29T03:49:21;7.65;;;2.85;;
12896;SDS011;6516;35.028;32.372;2023-01-29T03:52:01;9.20;;;2.65;;
12896;SDS011;6516;35.028;32.372;2023-01-29T03:54:39;9.40;;;3.08;;
12896;SDS011;6516;35.028;32.372;2023-01-29T03:57:23;7.50;;;2.60;;
12896;SDS011;6516;35.028;32.372;2023-01-29T04:00:00;8.80;;;3.00;;
12896;SDS011;6516;35.028;32.372;2023-01-29T04:02:37;10.32;;;3.50;;
12896;SDS011;6516;35.028;32.372;2023-01-29T04:05:17;11.88;;;3.60;;
12896;SDS011;6516;35.028;32.372;2023-01-29T04:07:51;8.73;;;3.30;;
12896;SDS011;6516;35.028;32.372;2023-01-29T04:10:25;9.87;;;3.60;;
12896;SDS011;6516;35.028;32.372;2023-01-29T04:12:55;10.10;;;3.78;;
12896;SDS011;6516;35.028;32.372;2023-01-29T04:15:28;7.50;;;3.30;;
12896;SDS011;6516;35.028;32.372;2023-01-29T04:18:02;7.57;;;3.30;;
12896;SDS011;6516;35.028;32.372;2023-01-29T04:20:31;8.80;;;3.30;;
12896;SDS011;6516;35.028;32.372;2023-01-29T04:23:01;10.30;;;2.90;;
12896;SDS011;6516;35.028;32.372;2023-01-29T04:25:33;9.93;;;3.28;;
12896;SDS011;6516;35.028;32.372;2023-01-29T04:28:12;6.82;;;2.80;;
12896;SDS011;6516;35.028;32.372;2023-01-29T04:30:49;7.32;;;3.20;;
12896;SDS011;6516;35.028;32.372;2023-01-29T04:33:26;7.63;;;3.45;;
12896;SDS011;6516;35.028;32.372;2023-01-29T04:36:08;7.27;;;3.03;;
12896;SDS011;6516;35.028;32.372;2023-01-29T04:38:50;10.40;;;3.45;;
12896;SDS011;6516;35.028;32.372;2023-01-29T04:41:31;9.48;;;3.25;;
12896;SDS011;6516;35.028;32.372;2023-01-29T04:44:04;8.13;;;3.13;;
12896;SDS011;6516;35.028;32.372;2023-01-29T04:46:41;7.50;;;3.17;;
12896;SDS011;6516;35.028;32.372;2023-01-29T04:49:19;7.40;;;3.07;;
12896;SDS011;6516;35.028;32.372;2023-01-29T04:52:07;6.35;;;2.50;;
12896;SDS011;6516;35.028;32.372;2023-01-29T04:54:46;7.28;;;2.53;;
12896;SDS011;6516;35.028;32.372;2023-01-29T04:57:21;7.10;;;2.60;;
12896;SDS011;6516;35.028;32.372;2023-01-29T04:59:57;7.80;;;2.58;;
12896;SDS011;6516;35.028;32.372;2023-01-29T05:02:29;7.47;;;2.40;;
12896;SDS011;6516;35.028;32.372;2023-01-29T05:05:00;6.38;;;2.60;;
12896;SDS011;6516;35.028;32.372;2023-01-29T05:07:32;5.82;;;2.72;;
12896;SDS011;6516;35.028;32.372;2023-01-29T05:10:03;8.57;;;2.40;;
12896;SDS011;6516;35.028;32.372;2023-01-29T05:12:34;5.25;;;2.45;;
12896;SDS011;6516;35.028;32.372;2023-01-29T05:15:07;5.33;;;2.30;;
12896;SDS011;6516;35.028;32.372;2023-01-29T05:17:39;6.68;;;2.42;;
12896;SDS011;6516;35.028;32.372;2023-01-29T05:20:09;6.03;;;2.00;;
12896;SDS011;6516;35.028;32.372;2023-01-29T05:22:40;7.15;;;2.03;;
12896;SDS011;6516;35.028;32.372;2023-01-29T05:25:18;7.30;;;2.13;;
12896;SDS011;6516;35.028;32.372;2023-01-29T05:27:50;6.50;;;2.30;;
12896;SDS011;6516;35.028;32.372;2023-01-29T05:30:29;6.18;;;2.17;;
12896;SDS011;6516;35.028;32.372;2023-01-29T05:32:58;7.05;;;2.13;;
12896;SDS011;6516;35.028;32.372;2023-01-29T05:35:26;6.00;;;2.40;;
12896;SDS011;6516;35.028;32.372;2023-01-29T05:37:56;5.57;;;1.90;;
12896;SDS011;6516;35.028;32.372;2023-01-29T05:40:24;4.77;;;1.80;;
12896;SDS011;6516;35.028;32.372;2023-01-29T05:42:52;4.13;;;1.83;;
12896;SDS011;6516;35.028;32.372;2023-01-29T05:45:20;5.85;;;1.80;;
12896;SDS011;6516;35.028;32.372;2023-01-29T05:47:48;6.22;;;1.98;;
12896;SDS011;6516;35.028;32.372;2023-01-29T05:50:15;6.13;;;1.85;;
12896;SDS011;6516;35.028;32.372;2023-01-29T05:52:43;7.27;;;1.90;;
12896;SDS011;6516;35.028;32.372;2023-01-29T05:55:13;7.97;;;2.20;;
12896;SDS011;6516;35.028;32.372;2023-01-29T05:57:41;5.97;;;1.65;;
12896;SDS011;6516;35.028;32.372;2023-01-29T06:00:09;4.95;;;1.42;;
12896;SDS011;6516;35.028;32.372;2023-01-29T06:02:39;5.03;;;1.70;;
12896;SDS011;6516;35.028;32.372;2023-01-29T06:05:07;7.60;;;1.60;;
12896;SDS011;6516;35.028;32.372;2023-01-29T06:07:35;4.40;;;1.52;;
12896;SDS011;6516;35.028;32.372;2023-01-29T06:10:04;5.22;;;1.55;;
12896;SDS011;6516;35.028;32.372;2023-01-29T06:12:35;4.32;;;1.40;;
12896;SDS011;6516;35.028;32.372;2023-01-29T06:15:03;5.05;;;1.30;;
12896;SDS011;6516;35.028;32.372;2023-01-29T06:17:31;3.67;;;1.20;;
12896;SDS011;6516;35.028;32.372;2023-01-29T06:19:59;4.78;;;1.33;;
12896;SDS011;6516;35.028;32.372;2023-01-29T06:22:28;4.82;;;1.50;;
12896;SDS011;6516;35.028;32.372;2023-01-29T06:24:55;5.68;;;1.27;;
12896;SDS011;6516;35.028;32.372;2023-01-29T06:27:23;6.03;;;1.35;;
12896;SDS011;6516;35.028;32.372;2023-01-29T06:29:52;3.30;;;1.10;;
12896;SDS011;6516;35.028;32.372;2023-01-29T06:32:20;3.80;;;1.00;;
12896;SDS011;6516;35.028;32.372;2023-01-29T06:34:48;5.60;;;1.00;;
12896;SDS011;6516;35.028;32.372;2023-01-29T06:37:17;4.15;;;1.10;;
12896;SDS011;6516;35.028;32.372;2023-01-29T06:39:45;4.20;;;1.13;;
12896;SDS011;6516;35.028;32.372;2023-01-29T06:42:13;3.23;;;1.00;;
12896;SDS011;6516;35.028;32.372;2023-01-29T06:44:40;7.22;;;1.33;;
12896;SDS011;6516;35.028;32.372;2023-01-29T06:47:10;3.90;;;1.05;;
12896;SDS011;6516;35.028;32.372;2023-01-29T06:49:37;6.35;;;1.77;;
12896;SDS011;6516;35.028;32.372;2023-01-29T06:52:05;3.33;;;1.15;;
12896;SDS011;6516;35.028;32.372;2023-01-29T06:54:33;4.03;;;1.00;;
12896;SDS011;6516;35.028;32.372;2023-01-29T06:57:01;4.13;;;1.20;;
12896;SDS011;6516;35.028;32.372;2023-01-29T06:59:29;4.10;;;0.90;;
12896;SDS011;6516;35.028;32.372;2023-01-29T07:01:56;6.32;;;1.10;;
12896;SDS011;6516;35.028;32.372;2023-01-29T07:04:26;3.65;;;0.90;;
12896;SDS011;6516;35.028;32.372;2023-01-29T07:06:53;3.53;;;1.03;;
12896;SDS011;6516;35.028;32.372;2023-01-29T07:09:21;3.40;;;1.08;;
12896;SDS011;6516;35.028;32.372;2023-01-29T07:11:49;5.53;;;1.20;;
12896;SDS011;6516;35.028;32.372;2023-01-29T07:14:16;4.97;;;1.20;;
12896;SDS011;6516;35.028;32.372;2023-01-29T07:16:44;5.68;;;1.55;;
12896;SDS011;6516;35.028;32.372;2023-01-29T07:19:12;4.83;;;1.43;;
12896;SDS011;6516;35.028;32.372;2023-01-29T07:21:41;5.47;;;1.23;;
12896;SDS011;6516;35.028;32.372;2023-01-29T07:24:09;4.68;;;1.30;;
12896;SDS011;6516;35.028;32.372;2023-01-29T07:26:37;3.42;;;1.02;;
12896;SDS011;6516;35.028;32.372;2023-01-29T07:29:05;4.07;;;1.23;;
12896;SDS011;6516;35.028;32.372;2023-01-29T07:31:33;3.93;;;1.10;;
12896;SDS011;6516;35.028;32.372;2023-01-29T07:34:00;4.03;;;1.20;;
12896;SDS011;6516;35.028;32.372;2023-01-29T07:36:28;4.30;;;1.50;;
12896;SDS011;6516;35.028;32.372;2023-01-29T07:38:58;4.65;;;1.38;;
12896;SDS011;6516;35.028;32.372;2023-01-29T07:41:25;3.63;;;1.40;;
12896;SDS011;6516;35.028;32.372;2023-01-29T07:43:53;4.83;;;1.50;;
12896;SDS011;6516;35.028;32.372;2023-01-29T07:46:21;2.95;;;1.20;;
12896;SDS011;6516;35.028;32.372;2023-01-29T07:48:48;4.38;;;1.27;;
12896;SDS011;6516;35.028;32.372;2023-01-29T07:51:16;5.22;;;1.30;;
12896;SDS011;6516;35.028;32.372;2023-01-29T07:53:45;3.45;;;1.05;;
12896;SDS011;6516;35.028;32.372;2023-01-29T07:56:14;4.57;;;1.13;;
12896;SDS011;6516;35.028;32.372;2023-01-29T07:58:43;5.95;;;1.30;;
12896;SDS011;6516;35.028;32.372;2023-01-29T08:01:11;4.30;;;1.20;;
12896;SDS011;6516;35.028;32.372;2023-01-29T08:03:39;4.53;;;1.25;;
12896;SDS011;6516;35.028;32.372;2023-01-29T08:06:07;5.50;;;1.30;;
12896;SDS011;6516;35.028;32.372;2023-01-29T08:08:34;3.53;;;1.00;;
12896;SDS011;6516;35.028;32.372;2023-01-29T08:11:03;4.55;;;1.23;;
12896;SDS011;6516;35.028;32.372;2023-01-29T08:13:32;3.28;;;1.10;;
12896;SDS011;6516;35.028;32.372;2023-01-29T08:16:00;4.90;;;1.20;;
12896;SDS011;6516;35.028;32.372;2023-01-29T08:18:29;4.18;;;1.38;;
12896;SDS011;6516;35.028;32.372;2023-01-29T08:20:59;5.27;;;1.30;;
12896;SDS011;6516;35.028;32.372;2023-01-29T08:23:28;4.78;;;1.40;;
12896;SDS011;6516;35.028;32.372;2023-01-29T08:25:56;6.30;;;1.40;;
12896;SDS011;6516;35.028;32.372;2023-01-29T08:28:24;4.50;;;1.30;;
12896;SDS011;6516;35.028;32.372;2023-01-29T08:30:53;4.05;;;1.40;;
12896;SDS011;6516;35.028;32.372;2023-01-29T08:33:21;4.00;;;1.40;;
12896;SDS011;6516;35.028;32.372;2023-01-29T08:35:50;3.88;;;1.20;;
12896;SDS011;6516;35.028;32.372;2023-01-29T08:38:19;4.50;;;1.40;;
12896;SDS011;6516;35.028;32.372;2023-01-29T08:40:47;5.18;;;1.60;;
12896;SDS011;6516;35.028;32.372;2023-01-29T08:43:16;5.15;;;1.70;;
12896;SDS011;6516;35.028;32.372;2023-01-29T08:45:44;5.33;;;1.40;;
12896;SDS011;6516;35.028;32.372;2023-01-29T08:48:13;3.70;;;1.40;;
12896;SDS011;6516;35.028;32.372;2023-01-29T08:50:41;4.75;;;1.33;;
12896;SDS011;6516;35.028;32.372;2023-01-29T08:53:08;5.95;;;1.45;;
12896;SDS011;6516;35.028;32.372;2023-01-29T08:55:37;3.45;;;1.10;;
12896;SDS011;6516;35.028;32.372;2023-01-29T08:58:06;6.00;;;1.33;;
12896;SDS011;6516;35.028;32.372;2023-01-29T09:00:36;7.72;;;1.52;;
12896;SDS011;6516;35.028;32.372;2023-01-29T09:03:04;6.22;;;1.75;;
12896;SDS011;6516;35.028;32.372;2023-01-29T09:05:34;5.10;;;1.30;;
12896;SDS011;6516;35.028;32.372;2023-01-29T09:08:03;4.22;;;1.42;;
12896;SDS011;6516;35.028;32.372;2023-01-29T09:10:31;4.10;;;1.10;;
12896;SDS011;6516;35.028;32.372;2023-01-29T09:12:59;4.68;;;1.70;;
12896;SDS011;6516;35.028;32.372;2023-01-29T09:15:29;5.15;;;1.20;;
12896;SDS011;6516;35.028;32.372;2023-01-29T09:17:57;4.70;;;1.30;;
12896;SDS011;6516;35.028;32.372;2023-01-29T09:20:29;4.13;;;1.40;;
12896;SDS011;6516;35.028;32.372;2023-01-29T09:22:59;7.07;;;1.73;;
12896;SDS011;6516;35.028;32.372;2023-01-29T09:25:31;4.30;;;1.20;;
12896;SDS011;6516;35.028;32.372;2023-01-29T09:27:59;4.85;;;1.48;;
12896;SDS011;6516;35.028;32.372;2023-01-29T09:30:26;3.97;;;1.10;;
12896;SDS011;6516;35.028;32.372;2023-01-29T09:32:54;6.25;;;1.60;;
12896;SDS011;6516;35.028;32.372;2023-01-29T09:35:22;6.10;;;1.60;;
12896;SDS011;6516;35.028;32.372;2023-01-29T09:37:50;5.47;;;1.50;;
12896;SDS011;6516;35.028;32.372;2023-01-29T09:40:22;3.78;;;1.20;;
12896;SDS011;6516;35.028;32.372;2023-01-29T09:42:53;5.32;;;1.50;;
12896;SDS011;6516;35.028;32.372;2023-01-29T09:45:28;4.72;;;1.33;;
12896;SDS011;6516;35.028;32.372;2023-01-29T09:47:57;3.27;;;1.10;;
12896;SDS011;6516;35.028;32.372;2023-01-29T09:50:28;4.50;;;1.40;;
12896;SDS011;6516;35.028;32.372;2023-01-29T09:53:01;6.15;;;1.35;;
12896;SDS011;6516;35.028;32.372;2023-01-29T09:55:41;6.43;;;1.60;;
12896;SDS011;6516;35.028;32.372;2023-01-29T09:58:17;7.35;;;1.50;;
12896;SDS011;6516;35.028;32.372;2023-01-29T10:00:53;5.00;;;1.30;;
12896;SDS011;6516;35.028;32.372;2023-01-29T10:03:34;3.95;;;1.58;;
12896;SDS011;6516;35.028;32.372;2023-01-29T10:06:20;4.22;;;1.33;;
12896;SDS011;6516;35.028;32.372;2023-01-29T10:12:25;6.82;;;1.52;;
12896;SDS011;6516;35.028;32.372;2023-01-29T10:15:13;4.97;;;1.50;;
12896;SDS011;6516;35.028;32.372;2023-01-29T10:18:04;5.30;;;1.50;;
12896;SDS011;6516;35.028;32.372;2023-01-29T10:21:15;6.40;;;1.50;;
12896;SDS011;6516;35.028;32.372;2023-01-29T10:24:01;4.65;;;1.20;;
12896;SDS011;6516;35.028;32.372;2023-01-29T10:26:41;4.80;;;1.30;;
12896;SDS011;6516;35.028;32.372;2023-01-29T10:29:13;5.33;;;1.50;;
12896;SDS011;6516;35.028;32.372;2023-01-29T10:31:47;4.78;;;1.40;;
12896;SDS011;6516;35.028;32.372;2023-01-29T10:34:22;5.03;;;1.20;;
12896;SDS011;6516;35.028;32.372;2023-01-29T10:36:54;3.35;;;1.27;;
12896;SDS011;6516;35.028;32.372;2023-01-29T10:39:23;5.47;;;1.45;;
12896;SDS011;6516;35.028;32.372;2023-01-29T10:41:59;4.83;;;1.40;;
12896;SDS011;6516;35.028;32.372;2023-01-29T10:44:44;3.97;;;1.23;;
12896;SDS011;6516;35.028;32.372;2023-01-29T10:50:47;4.63;;;1.40;;
12896;SDS011;6516;35.028;32.372;2023-01-29T10:53:25;7.53;;;1.40;;
12896;SDS011;6516;35.028;32.372;2023-01-29T10:56:07;6.20;;;1.33;;
12896;SDS011;6516;35.028;32.372;2023-01-29T10:58:49;3.83;;;1.15;;
12896;SDS011;6516;35.028;32.372;2023-01-29T11:01:22;5.32;;;1.30;;
12896;SDS011;6516;35.028;32.372;2023-01-29T11:03:54;5.07;;;1.30;;
12896;SDS011;6516;35.028;32.372;2023-01-29T11:06:26;5.47;;;1.30;;
12896;SDS011;6516;35.028;32.372;2023-01-29T11:08:58;3.63;;;1.20;;
12896;SDS011;6516;35.028;32.372;2023-01-29T11:11:35;4.05;;;1.33;;
12896;SDS011;6516;35.028;32.372;2023-01-29T11:14:10;5.28;;;1.55;;
12896;SDS011;6516;35.028;32.372;2023-01-29T11:16:43;3.60;;;1.38;;
12896;SDS011;6516;35.028;32.372;2023-01-29T11:19:14;7.05;;;1.30;;
12896;SDS011;6516;35.028;32.372;2023-01-29T11:21:49;5.80;;;1.40;;
12896;SDS011;6516;35.028;32.372;2023-01-29T11:24:21;5.90;;;1.90;;
12896;SDS011;6516;35.028;32.372;2023-01-29T11:26:49;5.10;;;1.90;;
12896;SDS011;6516;35.028;32.372;2023-01-29T11:29:36;6.05;;;1.60;;
12896;SDS011;6516;35.028;32.372;2023-01-29T11:32:10;4.82;;;1.50;;
12896;SDS011;6516;35.028;32.372;2023-01-29T11:34:57;6.10;;;1.40;;
12896;SDS011;6516;35.028;32.372;2023-01-29T11:37:34;3.30;;;1.13;;
12896;SDS011;6516;35.028;32.372;2023-01-29T11:43:12;5.78;;;1.45;;
12896;SDS011;6516;35.028;32.372;2023-01-29T11:45:57;4.32;;;1.30;;
12896;SDS011;6516;35.028;32.372;2023-01-29T11:48:38;4.07;;;1.40;;
12896;SDS011;6516;35.028;32.372;2023-01-29T11:51:09;3.85;;;1.23;;
12896;SDS011;6516;35.028;32.372;2023-01-29T11:53:48;3.58;;;1.40;;
12896;SDS011;6516;35.028;32.372;2023-01-29T11:56:20;4.32;;;1.42;;
12896;SDS011;6516;35.028;32.372;2023-01-29T11:58:51;4.80;;;1.20;;
12896;SDS011;6516;35.028;32.372;2023-01-29T12:01:29;5.40;;;1.50;;
12896;SDS011;6516;35.028;32.372;2023-01-29T12:04:03;4.32;;;1.27;;
12896;SDS011;6516;35.028;32.372;2023-01-29T12:06:45;6.25;;;1.48;;
12896;SDS011;6516;35.028;32.372;2023-01-29T12:09:17;3.80;;;1.17;;
12896;SDS011;6516;35.028;32.372;2023-01-29T12:11:49;5.07;;;1.80;;
12896;SDS011;6516;35.028;32.372;2023-01-29T12:14:25;4.73;;;1.90;;
12896;SDS011;6516;35.028;32.372;2023-01-29T12:16:58;3.88;;;1.40;;
12896;SDS011;6516;35.028;32.372;2023-01-29T12:19:35;6.28;;;1.50;;
12896;SDS011;6516;35.028;32.372;2023-01-29T12:22:09;8.23;;;1.40;;
12896;SDS011;6516;35.028;32.372;2023-01-29T12:24:49;3.60;;;1.38;;
12896;SDS011;6516;35.028;32.372;2023-01-29T12:27:23;3.83;;;1.20;;
12896;SDS011;6516;35.028;32.372;2023-01-29T12:29:56;4.65;;;1.23;;
12896;SDS011;6516;35.028;32.372;2023-01-29T12:32:33;4.82;;;1.50;;
12896;SDS011;6516;35.028;32.372;2023-01-29T12:35:13;3.70;;;1.60;;
12896;SDS011;6516;35.028;32.372;2023-01-29T12:37:51;5.43;;;2.00;;
12896;SDS011;6516;35.028;32.372;2023-01-29T12:40:27;5.73;;;1.63;;
12896;SDS011;6516;35.028;32.372;2023-01-29T12:43:00;4.28;;;1.50;;
12896;SDS011;6516;35.028;32.372;2023-01-29T12:45:35;5.30;;;1.50;;
12896;SDS011;6516;35.028;32.372;2023-01-29T12:48:05;4.70;;;1.90;;
12896;SDS011;6516;35.028;32.372;2023-01-29T12:50:37;6.75;;;1.77;;
12896;SDS011;6516;35.028;32.372;2023-01-29T12:53:06;5.87;;;1.73;;
12896;SDS011;6516;35.028;32.372;2023-01-29T12:55:49;5.32;;;1.90;;
12896;SDS011;6516;35.028;32.372;2023-01-29T12:58:22;8.80;;;1.90;;
12896;SDS011;6516;35.028;32.372;2023-01-29T13:00:55;3.35;;;1.40;;
12896;SDS011;6516;35.028;32.372;2023-01-29T13:03:31;4.25;;;1.35;;
12896;SDS011;6516;35.028;32.372;2023-01-29T13:06:07;5.47;;;1.43;;
12896;SDS011;6516;35.028;32.372;2023-01-29T13:08:40;8.07;;;1.48;;
12896;SDS011;6516;35.028;32.372;2023-01-29T13:11:12;4.65;;;1.50;;
12896;SDS011;6516;35.028;32.372;2023-01-29T13:13:48;3.67;;;1.30;;
12896;SDS011;6516;35.028;32.372;2023-01-29T13:16:23;4.28;;;1.20;;
12896;SDS011;6516;35.028;32.372;2023-01-29T13:18:55;4.20;;;1.30;;
12896;SDS011;6516;35.028;32.372;2023-01-29T13:21:28;4.03;;;1.30;;
12896;SDS011;6516;35.028;32.372;2023-01-29T13:24:01;5.32;;;1.40;;
12896;SDS011;6516;35.028;32.372;2023-01-29T13:26:35;4.00;;;1.27;;
12896;SDS011;6516;35.028;32.372;2023-01-29T13:29:04;5.18;;;1.23;;
12896;SDS011;6516;35.028;32.372;2023-01-29T13:31:32;6.37;;;1.50;;
12896;SDS011;6516;35.028;32.372;2023-01-29T13:34:12;5.03;;;1.40;;
12896;SDS011;6516;35.028;32.372;2023-01-29T13:36:45;4.07;;;1.50;;
12896;SDS011;6516;35.028;32.372;2023-01-29T13:39:24;6.90;;;1.80;;
12896;SDS011;6516;35.028;32.372;2023-01-29T13:41:55;4.68;;;1.40;;
12896;SDS011;6516;35.028;32.372;2023-01-29T13:44:25;3.47;;;1.40;;
12896;SDS011;6516;35.028;32.372;2023-01-29T13:47:00;4.15;;;1.23;;
12896;SDS011;6516;35.028;32.372;2023-01-29T13:49:32;3.72;;;1.30;;
12896;SDS011;6516;35.028;32.372;2023-01-29T13:52:15;3.83;;;1.33;;
12896;SDS011;6516;35.028;32.372;2023-01-29T13:54:53;4.95;;;1.50;;
12896;SDS011;6516;35.028;32.372;2023-01-29T14:06:35;4.45;;;1.33;;
12896;SDS011;6516;35.028;32.372;2023-01-29T14:12:33;6.27;;;1.63;;
12896;SDS011;6516;35.028;32.372;2023-01-29T14:15:14;4.70;;;1.40;;
12896;SDS011;6516;35.028;32.372;2023-01-29T14:20:54;4.80;;;1.40;;
12896;SDS011;6516;35.028;32.372;2023-01-29T14:23:30;4.00;;;1.55;;
12896;SDS011;6516;35.028;32.372;2023-01-29T14:26:17;3.50;;;1.50;;
12896;SDS011;6516;35.028;32.372;2023-01-29T14:29:00;4.85;;;2.28;;
12896;SDS011;6516;35.028;32.372;2023-01-29T14:31:35;6.82;;;2.35;;
12896;SDS011;6516;35.028;32.372;2023-01-29T14:34:12;6.35;;;2.40;;
12896;SDS011;6516;35.028;32.372;2023-01-29T14:36:46;6.45;;;3.13;;
12896;SDS011;6516;35.028;32.372;2023-01-29T14:39:20;7.60;;;3.83;;
12896;SDS011;6516;35.028;32.372;2023-01-29T14:41:54;9.45;;;4.00;;
12896;SDS011;6516;35.028;32.372;2023-01-29T14:53:17;9.60;;;4.23;;
12896;SDS011;6516;35.028;32.372;2023-01-29T14:55:51;7.18;;;3.63;;
12896;SDS011;6516;35.028;32.372;2023-01-29T14:58:30;8.90;;;3.95;;
12896;SDS011;6516;35.028;32.372;2023-01-29T15:01:05;4.85;;;2.55;;
12896;SDS011;6516;35.028;32.372;2023-01-29T15:03:43;4.32;;;2.40;;
12896;SDS011;6516;35.028;32.372;2023-01-29T15:06:15;6.33;;;2.57;;
12896;SDS011;6516;35.028;32.372;2023-01-29T15:08:50;6.80;;;3.70;;
12896;SDS011;6516;35.028;32.372;2023-01-29T15:11:29;8.25;;;3.55;;
12896;SDS011;6516;35.028;32.372;2023-01-29T15:14:05;4.30;;;2.30;;
12896;SDS011;6516;35.028;32.372;2023-01-29T15:16:50;6.03;;;2.10;;
12896;SDS011;6516;35.028;32.372;2023-01-29T15:19:28;3.80;;;1.83;;
12896;SDS011;6516;35.028;32.372;2023-01-29T15:22:02;4.60;;;2.05;;
12896;SDS011;6516;35.028;32.372;2023-01-29T15:24:33;5.90;;;2.20;;
12896;SDS011;6516;35.028;32.372;2023-01-29T15:27:01;5.45;;;2.40;;
12896;SDS011;6516;35.028;32.372;2023-01-29T15:29:31;5.10;;;2.30;;
12896;SDS011;6516;35.028;32.372;2023-01-29T15:32:00;4.73;;;2.23;;
12896;SDS011;6516;35.028;32.372;2023-01-29T15:34:30;5.38;;;1.90;;
12896;SDS011;6516;35.028;32.372;2023-01-29T15:36:58;4.85;;;2.33;;
12896;SDS011;6516;35.028;32.372;2023-01-29T15:39:25;5.38;;;2.10;;
12896;SDS011;6516;35.028;32.372;2023-01-29T15:42:09;5.38;;;2.05;;
12896;SDS011;6516;35.028;32.372;2023-01-29T15:44:50;6.50;;;2.17;;
12896;SDS011;6516;35.028;32.372;2023-01-29T15:47:22;7.07;;;1.90;;
12896;SDS011;6516;35.028;32.372;2023-01-29T15:49:54;5.03;;;2.33;;
12896;SDS011;6516;35.028;32.372;2023-01-29T15:52:23;6.20;;;2.28;;
12896;SDS011;6516;35.028;32.372;2023-01-29T15:55:00;6.70;;;2.10;;